createdAt,value
2018-06-21T00:02:20.923Z,21.00
2018-06-21T00:04:49.403Z,21.00
2018-06-21T00:07:18.011Z,20.90
2018-06-21T00:09:46.516Z,20.90
2018-06-21T00:12:15.091Z,20.90
2018-06-21T00:14:43.718Z,20.80
2018-06-21T00:17:12.298Z,20.80
2018-06-21T00:19:40.863Z,20.80
2018-06-21T00:22:09.532Z,20.80
2018-06-21T00:24:38.059Z,20.80
2018-06-21T00:27:06.952Z,20.80
2018-06-21T00:29:35.472Z,20.70
2018-06-21T00:32:04.069Z,20.70
2018-06-21T00:34:32.586Z,20.60
2018-06-21T00:37:01.107Z,20.50
2018-06-21T00:39:29.614Z,20.50
2018-06-21T00:41:58.090Z,20.50
2018-06-21T00:44:26.843Z,20.50
2018-06-21T00:46:55.641Z,20.50
2018-06-21T00:49:24.157Z,20.50
2018-06-21T00:51:52.653Z,20.40
2018-06-21T00:54:21.192Z,20.30
2018-06-21T00:56:49.799Z,20.20
2018-06-21T00:59:18.378Z,20.20
2018-06-21T01:01:46.901Z,20.20
2018-06-21T01:04:15.583Z,20.20
2018-06-21T01:06:44.145Z,20.20
2018-06-21T01:09:12.777Z,20.20
2018-06-21T01:11:41.288Z,20.20
2018-06-21T01:14:09.867Z,20.20
2018-06-21T01:16:38.367Z,20.10
2018-06-21T01:19:06.860Z,20.10
2018-06-21T01:21:35.509Z,20.00
2018-06-21T01:24:04.127Z,19.90
2018-06-21T01:26:32.726Z,19.80
2018-06-21T01:29:01.231Z,19.90
2018-06-21T01:31:29.796Z,19.80
2018-06-21T01:33:58.606Z,19.70
2018-06-21T01:36:27.354Z,19.70
2018-06-21T01:38:55.945Z,19.70
2018-06-21T01:41:24.465Z,19.70
2018-06-21T01:43:53.056Z,19.60
2018-06-21T01:46:21.583Z,19.60
2018-06-21T01:48:50.596Z,19.60
2018-06-21T01:53:47.287Z,19.60
2018-06-21T01:56:15.867Z,19.50
2018-06-21T01:58:44.395Z,19.50
2018-06-21T02:01:12.978Z,19.50
2018-06-21T02:03:41.497Z,19.60
2018-06-21T02:06:10.072Z,19.60
2018-06-21T02:08:38.540Z,19.60
2018-06-21T02:11:07.334Z,19.60
2018-06-21T02:13:35.921Z,19.60
2018-06-21T02:16:04.506Z,19.60
2018-06-21T02:18:33.247Z,19.70
2018-06-21T02:21:01.746Z,19.70
2018-06-21T02:23:30.294Z,19.70
2018-06-21T02:25:58.812Z,19.70
2018-06-21T02:28:27.298Z,19.70
2018-06-21T02:30:55.811Z,19.70
2018-06-21T02:33:24.300Z,19.80
2018-06-21T02:35:52.861Z,19.80
2018-06-21T02:38:21.439Z,19.80
2018-06-21T02:40:49.976Z,19.80
2018-06-21T02:43:18.519Z,19.80
2018-06-21T02:45:47.031Z,19.80
2018-06-21T02:48:15.669Z,19.80
2018-06-21T02:50:44.233Z,19.70
2018-06-21T02:53:12.879Z,19.70
2018-06-21T02:55:41.396Z,19.70
2018-06-21T02:58:09.903Z,19.70
2018-06-21T03:00:38.463Z,19.70
2018-06-21T03:03:06.979Z,19.80
2018-06-21T03:05:35.463Z,19.80
2018-06-21T03:08:04.345Z,19.80
2018-06-21T03:10:33.008Z,19.80
2018-06-21T03:13:01.830Z,19.80
2018-06-21T03:15:30.445Z,19.80
2018-06-21T03:17:58.946Z,19.80
2018-06-21T03:20:27.810Z,19.80
2018-06-21T03:22:56.415Z,19.80
2018-06-21T03:25:24.937Z,19.80
2018-06-21T03:27:53.481Z,19.80
2018-06-21T03:30:21.997Z,19.80
2018-06-21T03:32:50.741Z,19.80
2018-06-21T03:35:19.277Z,19.80
2018-06-21T03:37:48.068Z,19.80
2018-06-21T03:40:16.945Z,19.90
2018-06-21T03:42:45.512Z,19.90
2018-06-21T03:45:14.199Z,19.80
2018-06-21T03:47:42.698Z,19.80
2018-06-21T03:50:11.263Z,19.90
2018-06-21T03:52:39.946Z,19.90
2018-06-21T03:55:08.499Z,19.90
2018-06-21T03:57:37.002Z,20.00
2018-06-21T04:00:06.048Z,20.00
2018-06-21T04:02:34.638Z,20.00
2018-06-21T04:05:03.184Z,20.20
2018-06-21T04:07:31.748Z,20.20
2018-06-21T04:10:00.279Z,20.30
2018-06-21T04:12:29.041Z,20.30
2018-06-21T04:14:57.687Z,20.40
2018-06-21T04:17:26.464Z,20.40
2018-06-21T04:19:55.198Z,20.40
2018-06-21T04:22:23.735Z,20.40
2018-06-21T04:24:52.222Z,20.50
2018-06-21T04:27:20.911Z,20.50
2018-06-21T04:29:49.473Z,20.60
2018-06-21T04:32:18.233Z,20.60
2018-06-21T04:34:46.819Z,20.70
2018-06-21T04:37:15.380Z,20.70
2018-06-21T04:39:44.031Z,20.80
2018-06-21T04:42:12.547Z,20.90
2018-06-21T04:44:41.355Z,21.00
2018-06-21T04:47:10.227Z,21.10
2018-06-21T04:49:38.808Z,21.10
2018-06-21T04:52:07.711Z,21.20
2018-06-21T04:54:36.495Z,21.30
2018-06-21T04:57:05.821Z,21.30
2018-06-21T04:59:34.574Z,21.50
2018-06-21T05:02:03.171Z,21.50
2018-06-21T05:04:31.691Z,21.60
2018-06-21T05:07:00.244Z,21.80
2018-06-21T05:09:28.775Z,21.90
2018-06-21T05:11:57.279Z,22.10
2018-06-21T05:14:25.995Z,22.30
2018-06-21T05:16:54.603Z,22.50
2018-06-21T05:19:23.148Z,22.70
2018-06-21T05:21:51.992Z,22.90
2018-06-21T05:24:20.574Z,23.10
2018-06-21T05:26:49.120Z,23.30
2018-06-21T05:29:17.881Z,23.60
2018-06-21T05:44:38.731Z,23.90
2018-06-21T05:47:07.248Z,25.30
2018-06-21T05:49:35.694Z,25.50
2018-06-21T05:52:04.161Z,25.60
2018-06-21T05:54:32.663Z,25.70
2018-06-21T05:57:01.099Z,26.00
2018-06-21T05:59:29.555Z,26.20
2018-06-21T06:01:58.043Z,26.40
2018-06-21T06:04:26.510Z,26.40
2018-06-21T06:06:54.946Z,26.60
2018-06-21T06:09:23.410Z,26.40
2018-06-21T06:11:51.903Z,26.60
2018-06-21T06:14:20.390Z,26.90
2018-06-21T06:16:48.909Z,27.00
2018-06-21T06:19:17.358Z,26.80
2018-06-21T06:21:46.102Z,27.10
2018-06-21T06:24:14.620Z,27.10
2018-06-21T06:26:43.070Z,27.40
2018-06-21T06:29:11.605Z,27.50
2018-06-21T06:31:40.632Z,27.60
2018-06-21T06:34:09.462Z,27.80
2018-06-21T06:36:37.939Z,28.10
2018-06-21T06:39:14.259Z,28.30
2018-06-21T06:41:42.774Z,28.20
2018-06-21T06:44:11.415Z,28.10
2018-06-21T06:46:39.959Z,28.30
2018-06-21T06:49:08.904Z,28.30
2018-06-21T06:51:37.897Z,28.60
2018-06-21T06:54:06.467Z,28.50
2018-06-21T06:56:35.025Z,28.70
2018-06-21T06:59:03.530Z,28.60
2018-06-21T07:01:32.104Z,28.90
2018-06-21T07:04:00.652Z,29.30
2018-06-21T07:08:58.218Z,29.40
2018-06-21T07:11:27.708Z,29.50
2018-06-21T07:13:57.083Z,29.80
2018-06-21T07:16:26.130Z,29.80
2018-06-21T07:18:54.663Z,30.20
2018-06-21T07:21:23.311Z,30.40
2018-06-21T07:23:52.209Z,30.80
2018-06-21T07:26:20.881Z,30.80
2018-06-21T07:28:49.572Z,30.90
2018-06-21T07:31:18.230Z,30.80
2018-06-21T07:33:46.972Z,31.00
2018-06-21T07:36:15.760Z,31.20
2018-06-21T07:38:44.390Z,31.50
2018-06-21T07:43:41.046Z,31.50
2018-06-21T07:46:09.618Z,31.60
2018-06-21T07:48:38.114Z,31.70
2018-06-21T07:51:06.774Z,31.80
2018-06-21T07:53:35.409Z,32.30
2018-06-21T07:56:04.205Z,32.40
2018-06-21T07:58:32.813Z,32.70
2018-06-21T08:01:01.392Z,32.70
2018-06-21T08:03:30.333Z,32.70
2018-06-21T08:05:59.144Z,32.70
2018-06-21T08:08:27.732Z,32.70
2018-06-21T08:10:56.429Z,32.30
2018-06-21T08:13:25.011Z,31.70
2018-06-21T08:15:54.113Z,31.60
2018-06-21T08:18:22.698Z,31.50
2018-06-21T08:20:51.276Z,31.30
2018-06-21T08:23:19.851Z,31.50
2018-06-21T08:25:48.574Z,31.40
2018-06-21T08:28:17.168Z,31.70
2018-06-21T08:30:46.328Z,31.90
2018-06-21T08:33:14.979Z,31.80
2018-06-21T08:35:43.637Z,32.20
2018-06-21T08:38:12.229Z,32.40
2018-06-21T08:40:40.930Z,32.60
2018-06-21T08:43:09.910Z,32.90
2018-06-21T08:45:38.610Z,33.50
2018-06-21T08:48:07.179Z,33.60
2018-06-21T08:50:36.218Z,33.60
2018-06-21T08:53:04.817Z,33.70
2018-06-21T08:55:33.348Z,33.60
2018-06-21T08:58:05.876Z,33.60
2018-06-21T09:00:34.517Z,33.70
2018-06-21T09:03:03.075Z,33.80
2018-06-21T09:05:31.679Z,34.00
2018-06-21T09:08:00.206Z,34.00
2018-06-21T09:10:28.740Z,33.90
2018-06-21T09:12:57.239Z,33.80
2018-06-21T09:15:25.780Z,33.60
2018-06-21T09:17:54.191Z,33.60
2018-06-21T09:20:22.737Z,33.80
2018-06-21T09:22:51.229Z,34.10
2018-06-21T09:25:19.738Z,33.80
2018-06-21T09:27:48.326Z,33.60
2018-06-21T09:30:16.834Z,33.70
2018-06-21T09:32:45.302Z,33.70
2018-06-21T09:35:13.745Z,34.00
2018-06-21T09:37:47.445Z,33.70
2018-06-21T09:40:21.244Z,33.60
2018-06-21T09:42:55.039Z,33.20
2018-06-21T09:45:28.951Z,33.10
2018-06-21T09:48:02.684Z,33.20
2018-06-21T09:50:31.119Z,33.20
2018-06-21T09:52:59.601Z,33.50
2018-06-21T09:55:28.083Z,33.70
2018-06-21T09:57:57.794Z,33.70
2018-06-21T10:00:31.642Z,34.00
2018-06-21T10:03:00.111Z,34.10
2018-06-21T10:05:28.587Z,34.20
2018-06-21T10:07:57.082Z,34.10
2018-06-21T10:10:25.564Z,34.20
2018-06-21T10:12:54.149Z,33.90
2018-06-21T10:15:22.618Z,33.90
2018-06-21T10:17:51.130Z,34.10
2018-06-21T10:20:19.663Z,34.20
2018-06-21T10:22:48.184Z,34.10
2018-06-21T10:25:16.728Z,34.10
2018-06-21T10:27:45.259Z,34.20
2018-06-21T10:30:13.860Z,34.70
2018-06-21T10:32:42.448Z,34.70
2018-06-21T10:35:10.990Z,34.50
2018-06-21T10:37:39.507Z,34.40
2018-06-21T10:40:08.044Z,34.20
2018-06-21T10:42:36.578Z,34.40
2018-06-21T10:45:05.155Z,34.50
2018-06-21T10:47:33.708Z,34.60
2018-06-21T10:50:02.266Z,34.70
2018-06-21T10:52:30.775Z,34.70
2018-06-21T10:54:59.348Z,34.70
2018-06-21T10:57:27.881Z,35.00
2018-06-21T10:59:56.406Z,35.00
2018-06-21T11:02:25.851Z,34.80
2018-06-21T11:04:54.420Z,34.80
2018-06-21T11:07:22.914Z,35.30
2018-06-21T11:09:51.451Z,35.20
2018-06-21T11:12:19.999Z,35.10
2018-06-21T11:14:48.565Z,35.30
2018-06-21T11:17:17.217Z,35.30
2018-06-21T11:19:45.725Z,35.10
2018-06-21T11:22:14.314Z,35.30
2018-06-21T11:24:42.918Z,35.20
2018-06-21T11:27:11.427Z,35.00
2018-06-21T11:29:39.894Z,34.80
2018-06-21T11:32:08.362Z,34.80
2018-06-21T11:34:37.024Z,34.80
2018-06-21T11:37:05.542Z,35.00
2018-06-21T11:39:34.073Z,35.00
2018-06-21T11:42:02.526Z,34.90
2018-06-21T11:44:31.126Z,34.70
2018-06-21T11:46:59.622Z,34.90
2018-06-21T11:49:28.150Z,35.10
2018-06-21T11:51:56.659Z,35.10
2018-06-21T11:54:25.146Z,35.20
2018-06-21T11:56:53.712Z,35.10
2018-06-21T11:59:22.286Z,35.30
2018-06-21T12:01:50.861Z,35.10
2018-06-21T12:04:19.454Z,35.30
2018-06-21T12:06:47.896Z,35.30
2018-06-21T12:09:16.371Z,35.40
2018-06-21T12:11:44.874Z,35.00
2018-06-21T12:14:13.415Z,34.70
2018-06-21T12:16:41.891Z,34.80
2018-06-21T12:19:10.418Z,34.80
2018-06-21T12:21:39.074Z,34.80
2018-06-21T12:24:07.591Z,34.90
2018-06-21T12:26:36.143Z,35.00
2018-06-21T12:29:04.731Z,34.80
2018-06-21T12:31:33.260Z,34.90
2018-06-21T12:34:01.828Z,35.20
2018-06-21T12:36:30.436Z,35.10
2018-06-21T12:38:58.958Z,35.00
2018-06-21T12:41:27.587Z,35.10
2018-06-21T12:43:56.134Z,35.20
2018-06-21T12:46:24.712Z,35.20
2018-06-21T12:48:53.227Z,34.80
2018-06-21T12:51:21.747Z,34.70
2018-06-21T12:53:50.239Z,34.80
2018-06-21T12:56:18.713Z,34.50
2018-06-21T12:58:47.318Z,34.50
2018-06-21T13:01:15.823Z,34.60
2018-06-21T13:03:44.359Z,34.80
2018-06-21T13:06:13.379Z,35.00
2018-06-21T13:08:53.005Z,35.10
2018-06-21T13:12:45.382Z,34.90
2018-06-21T13:15:13.951Z,35.00
2018-06-21T13:17:42.558Z,35.10
2018-06-21T13:20:11.086Z,35.00
2018-06-21T13:22:39.530Z,35.00
2018-06-21T13:25:08.124Z,34.90
2018-06-21T13:27:36.715Z,34.90
2018-06-21T13:30:06.678Z,34.70
2018-06-21T13:32:35.220Z,34.40
2018-06-21T13:35:03.801Z,34.40
2018-06-21T13:37:32.327Z,34.40
2018-06-21T13:40:00.890Z,34.60
2018-06-21T13:42:29.362Z,34.60
2018-06-21T13:44:57.986Z,34.50
2018-06-21T13:47:26.526Z,34.80
2018-06-21T13:49:55.884Z,34.80
2018-06-21T13:52:24.421Z,34.70
2018-06-21T13:54:52.986Z,34.70
2018-06-21T13:57:21.634Z,34.60
2018-06-21T13:59:50.312Z,34.40
2018-06-21T14:02:18.719Z,34.40
2018-06-21T14:04:47.206Z,34.40
2018-06-21T14:07:15.777Z,34.40
2018-06-21T14:09:44.310Z,34.40
2018-06-21T14:12:12.767Z,34.30
2018-06-21T14:14:41.314Z,34.30
2018-06-21T14:17:09.799Z,34.00
2018-06-21T14:19:38.330Z,34.00
2018-06-21T14:22:06.976Z,34.20
2018-06-21T14:24:35.502Z,34.30
2018-06-21T14:27:04.071Z,34.30
2018-06-21T14:29:33.358Z,34.40
2018-06-21T14:32:01.874Z,34.50
2018-06-21T14:34:30.354Z,34.60
2018-06-21T14:36:58.833Z,34.40
2018-06-21T14:39:27.318Z,34.30
2018-06-21T14:41:55.802Z,34.30
2018-06-21T14:44:24.306Z,34.10
2018-06-21T14:46:52.915Z,34.00
2018-06-21T14:49:21.386Z,34.00
2018-06-21T14:51:49.979Z,33.90
2018-06-21T14:54:18.458Z,33.90
2018-06-21T14:56:46.946Z,33.90
2018-06-21T14:59:15.400Z,34.00
2018-06-21T15:01:43.891Z,33.90
2018-06-21T15:04:12.371Z,34.00
2018-06-21T15:06:40.850Z,33.90
2018-06-21T15:09:11.419Z,33.80
2018-06-21T15:11:39.971Z,33.90
2018-06-21T15:14:08.902Z,33.70
2018-06-21T15:16:37.413Z,33.60
2018-06-21T15:19:05.932Z,33.50
2018-06-21T15:21:34.437Z,33.60
2018-06-21T15:24:02.924Z,33.60
2018-06-21T15:26:31.427Z,33.50
2018-06-21T15:28:59.981Z,33.50
2018-06-21T15:31:28.495Z,33.50
2018-06-21T15:33:56.987Z,33.50
2018-06-21T15:36:25.430Z,33.40
2018-06-21T15:38:57.535Z,33.30
2018-06-21T15:41:26.986Z,33.30
2018-06-21T15:43:55.563Z,33.30
2018-06-21T15:46:24.107Z,32.90
2018-06-21T15:48:52.590Z,32.90
2018-06-21T15:51:21.098Z,33.00
2018-06-21T15:53:49.591Z,33.00
2018-06-21T15:56:18.050Z,33.10
2018-06-21T15:58:46.488Z,33.00
2018-06-21T16:01:15.008Z,33.10
2018-06-21T16:03:43.508Z,33.10
2018-06-21T16:06:11.980Z,33.00
2018-06-21T16:08:40.532Z,32.90
2018-06-21T16:11:09.051Z,32.90
2018-06-21T16:13:37.536Z,32.70
2018-06-21T16:16:06.077Z,32.70
2018-06-21T16:18:34.542Z,32.70
2018-06-21T16:21:03.030Z,32.50
2018-06-21T16:23:31.553Z,32.40
2018-06-21T16:26:00.094Z,32.10
2018-06-21T16:28:28.539Z,31.90
2018-06-21T16:30:57.026Z,31.80
2018-06-21T16:33:25.542Z,31.90
2018-06-21T16:35:54.081Z,31.90
2018-06-21T16:38:22.758Z,31.90
2018-06-21T16:40:51.229Z,32.00
2018-06-21T16:43:19.791Z,32.00
2018-06-21T16:45:48.236Z,32.00
2018-06-21T16:48:16.691Z,32.00
2018-06-21T16:50:45.232Z,32.00
2018-06-21T16:53:15.888Z,31.80
2018-06-21T16:55:48.891Z,31.70
2018-06-21T16:58:20.791Z,31.70
2018-06-21T17:00:49.286Z,31.60
2018-06-21T17:03:17.759Z,31.60
2018-06-21T17:05:46.283Z,31.60
2018-06-21T17:08:14.978Z,31.50
2018-06-21T17:10:43.545Z,31.30
2018-06-21T17:13:12.006Z,30.60
2018-06-21T17:15:40.490Z,30.50
2018-06-21T17:18:09.046Z,30.40
2018-06-21T17:20:37.531Z,30.20
2018-06-21T17:23:06.050Z,30.40
2018-06-21T17:25:34.587Z,30.50
2018-06-21T17:28:03.723Z,30.60
2018-06-21T17:30:32.283Z,30.60
2018-06-21T17:33:00.854Z,30.70
2018-06-21T17:35:29.364Z,30.60
2018-06-21T17:37:57.878Z,30.60
2018-06-21T17:40:26.438Z,30.50
2018-06-21T17:42:54.969Z,30.50
2018-06-21T17:45:23.555Z,30.40
2018-06-21T17:47:51.993Z,30.40
2018-06-21T17:50:20.447Z,30.30
2018-06-21T17:52:49.014Z,30.10
2018-06-21T17:55:17.510Z,29.90
2018-06-21T17:57:45.996Z,29.70
2018-06-21T18:00:14.526Z,29.60
2018-06-21T18:02:43.550Z,29.40
2018-06-21T18:05:11.981Z,29.30
2018-06-21T18:07:40.491Z,29.30
2018-06-21T18:10:08.970Z,29.30
2018-06-21T18:12:37.547Z,29.20
2018-06-21T18:15:06.038Z,29.00
2018-06-21T18:17:34.527Z,28.70
2018-06-21T18:20:03.139Z,28.70
2018-06-21T18:22:31.583Z,28.50
2018-06-21T18:25:00.156Z,28.40
2018-06-21T18:27:28.691Z,28.30
2018-06-21T18:29:57.186Z,28.30
2018-06-21T18:32:25.718Z,28.40
2018-06-21T18:34:54.327Z,28.40
2018-06-21T18:37:22.837Z,28.30
2018-06-21T18:39:51.462Z,27.60
2018-06-21T18:42:20.035Z,27.00
2018-06-21T18:44:49.025Z,26.30
2018-06-21T18:47:17.491Z,26.00
2018-06-21T18:49:46.831Z,25.60
2018-06-21T18:52:16.127Z,25.20
2018-06-21T18:54:44.734Z,24.90
2018-06-21T18:57:13.254Z,24.60
2018-06-21T18:59:41.748Z,24.40
2018-06-21T19:02:10.231Z,24.10
2018-06-21T19:04:38.692Z,24.00
2018-06-21T19:07:42.514Z,23.70
2018-06-21T19:10:16.576Z,23.30
2018-06-21T19:12:45.075Z,22.90
2018-06-21T19:15:13.674Z,22.50
2018-06-21T19:17:42.187Z,22.30
2018-06-21T19:20:10.871Z,22.20
2018-06-21T19:22:39.365Z,22.10
2018-06-21T19:25:07.907Z,22.00
2018-06-21T19:27:36.975Z,21.90
2018-06-21T19:30:05.853Z,21.80
2018-06-21T19:32:34.372Z,21.70
2018-06-21T19:35:03.007Z,21.70
2018-06-21T19:37:31.567Z,21.60
2018-06-21T19:40:01.716Z,21.60
2018-06-21T19:42:30.300Z,21.40
2018-06-21T19:44:58.782Z,21.30
2018-06-21T19:47:27.301Z,21.20
2018-06-21T19:49:55.996Z,21.10
2018-06-21T19:52:24.578Z,21.00
2018-06-21T19:54:53.141Z,21.00
2018-06-21T19:57:21.833Z,20.70
2018-06-21T19:59:50.323Z,20.50
2018-06-21T20:02:18.999Z,20.30
2018-06-21T20:04:47.431Z,20.20
2018-06-21T20:07:15.997Z,20.20
2018-06-21T20:09:44.513Z,20.00
2018-06-21T20:12:13.057Z,19.90
2018-06-21T20:14:41.590Z,19.90
2018-06-21T20:17:10.094Z,20.00
2018-06-21T20:19:43.958Z,20.00
2018-06-21T20:22:12.543Z,19.90
2018-06-21T20:24:41.096Z,19.70
2018-06-21T20:27:09.603Z,19.80
2018-06-21T20:29:38.188Z,19.70
2018-06-21T20:32:06.683Z,19.70
2018-06-21T20:34:35.239Z,19.60
2018-06-21T20:37:03.898Z,19.50
2018-06-21T20:39:32.412Z,19.60
2018-06-21T20:42:01.019Z,19.40
2018-06-21T20:44:29.514Z,19.40
2018-06-21T20:46:58.084Z,19.40
2018-06-21T20:49:26.734Z,19.30
2018-06-21T20:51:55.226Z,19.30
2018-06-21T20:56:51.895Z,19.10
2018-06-21T20:59:20.478Z,19.10
2018-06-21T21:01:48.970Z,18.90
2018-06-21T21:04:17.482Z,18.80
2018-06-21T21:06:45.991Z,18.80
2018-06-21T21:09:19.834Z,18.80
2018-06-21T21:11:48.411Z,18.60
2018-06-21T21:14:16.960Z,18.60
2018-06-21T21:16:45.463Z,18.30
2018-06-21T21:19:13.991Z,18.30
2018-06-21T21:21:42.473Z,18.40
2018-06-21T21:24:10.994Z,18.40
2018-06-21T21:26:39.483Z,18.20
2018-06-21T21:29:08.026Z,18.20
2018-06-21T21:31:36.564Z,17.90
2018-06-21T21:34:05.199Z,17.80
2018-06-21T21:36:34.402Z,17.80
2018-06-21T21:39:02.930Z,17.80
2018-06-21T21:41:31.406Z,17.70
2018-06-21T21:43:59.854Z,17.50
2018-06-21T21:46:28.351Z,17.30
2018-06-21T21:48:56.892Z,17.20
2018-06-21T21:51:25.367Z,17.10
2018-06-21T21:53:53.831Z,17.20
2018-06-21T21:56:22.314Z,17.20
2018-06-21T21:58:50.786Z,16.80
2018-06-21T22:01:19.328Z,16.70
2018-06-21T22:03:47.899Z,16.90
2018-06-21T22:06:16.368Z,16.70
2018-06-21T22:08:44.838Z,16.70
2018-06-21T22:11:13.254Z,16.60
2018-06-21T22:13:41.714Z,16.70
2018-06-21T22:16:10.171Z,16.70
2018-06-21T22:18:38.625Z,16.70
2018-06-21T22:21:07.064Z,16.60
2018-06-21T22:23:35.528Z,16.60
2018-06-21T22:26:03.942Z,16.60
2018-06-21T22:28:32.415Z,16.60
2018-06-21T22:31:00.842Z,16.60
2018-06-21T22:33:29.282Z,16.60
2018-06-21T22:35:57.770Z,16.60
2018-06-21T22:38:26.207Z,16.60
2018-06-21T22:40:54.623Z,16.60
2018-06-21T22:43:23.107Z,16.50
2018-06-21T22:45:51.582Z,16.60
2018-06-21T22:48:20.072Z,16.50
2018-06-21T22:50:48.567Z,16.60
2018-06-21T22:53:17.090Z,16.50
2018-06-21T22:55:45.555Z,16.40
2018-06-21T22:58:14.126Z,16.50
2018-06-21T23:00:42.531Z,16.50
2018-06-21T23:03:10.975Z,16.40
2018-06-21T23:05:39.504Z,16.50
2018-06-21T23:08:07.966Z,16.30
2018-06-21T23:10:36.400Z,16.30
2018-06-21T23:13:04.830Z,16.30
2018-06-21T23:15:33.331Z,16.20
2018-06-21T23:18:01.795Z,16.20
2018-06-21T23:20:30.275Z,16.20
2018-06-21T23:22:58.767Z,16.20
2018-06-21T23:25:27.210Z,16.20
2018-06-21T23:27:55.776Z,16.20
2018-06-21T23:30:24.260Z,16.20
2018-06-21T23:32:52.695Z,16.00
2018-06-21T23:35:21.220Z,16.10
2018-06-21T23:37:49.658Z,15.90
2018-06-21T23:40:18.223Z,16.00
2018-06-21T23:42:46.730Z,16.00
2018-06-21T23:45:15.178Z,15.90
2018-06-21T23:47:43.666Z,16.00
2018-06-21T23:50:12.117Z,15.90
2018-06-21T23:52:40.530Z,15.90
2018-06-21T23:55:09.500Z,15.90
2018-06-21T23:57:38.011Z,15.90
